Time;durP1;ratioP1;P1;durP2;ratioP2;P2;SDS_P1;SDS_P2;PMS_P1;PMS_P2;Temp;Humidity;BMP_temperature;BMP_pressure;BME280_temperature;BME280_humidity;BME280_pressure;Samples;Min_cycle;Max_cycle;Signal;HPM_P1;HPM_P2
2022/11/18 00:01:12;;;;;;;7.38;5.80;;;;;;;15.93;50.22;91727.28;5044826;28;20063;-85
2022/11/18 00:03:37;;;;;;;8.82;6.07;;;;;;;15.95;50.21;91722.75;5025284;28;20033;-83
2022/11/18 00:06:03;;;;;;;7.53;5.63;;;;;;;15.95;50.34;91713.84;5055585;28;20040;-85
2022/11/18 00:08:29;;;;;;;8.90;5.82;;;;;;;15.95;50.11;91720.03;5032357;28;20033;-84
2022/11/18 00:10:54;;;;;;;8.45;6.00;;;;;;;15.94;50.22;91717.84;5019598;28;20036;-84
2022/11/18 00:16:06;;;;;;;6.53;5.75;;;;;;;15.94;50.31;91713.13;5056076;28;20094;-84
2022/11/18 00:18:31;;;;;;;6.88;5.35;;;;;;;15.96;50.09;91720.75;5044734;28;20029;-84
2022/11/18 00:21:02;;;;;;;9.18;5.88;;;;;;;15.93;50.12;91710.94;5018633;28;20040;-84
2022/11/18 00:23:27;;;;;;;6.72;5.07;;;;;;;15.94;50.28;91709.66;5048380;28;20503;-84
2022/11/18 00:26:00;;;;;;;6.82;5.03;;;;;;;15.93;50.45;91713.66;5015494;28;20155;-84
2022/11/18 00:28:26;;;;;;;5.75;5.07;;;;;;;15.93;50.44;91708.94;5052097;28;20036;-85
2022/11/18 00:30:51;;;;;;;7.43;4.88;;;;;;;15.91;50.06;91703.28;5031265;28;20033;-85
2022/11/18 00:33:16;;;;;;;6.32;5.53;;;;;;;15.91;50.21;91702.56;5048123;28;20048;-85
2022/11/18 00:35:42;;;;;;;6.38;4.80;;;;;;;15.94;50.55;91698.75;5035128;28;20044;-84
2022/11/18 00:38:07;;;;;;;5.88;4.80;;;;;;;15.93;50.51;91700.03;5047838;28;20036;-84
2022/11/18 00:40:33;;;;;;;6.45;4.88;;;;;;;15.92;50.08;91699.28;5032917;28;20399;-84
2022/11/18 00:42:58;;;;;;;4.97;4.07;;;;;;;15.93;50.43;91697.31;5067595;28;20033;-84
2022/11/18 00:45:23;;;;;;;5.63;4.75;;;;;;;15.92;50.17;91699.28;5068007;28;20033;-84
2022/11/18 00:47:49;;;;;;;6.13;4.78;;;;;;;15.93;49.95;91689.84;5055159;28;20110;-84
2022/11/18 00:50:14;;;;;;;7.72;5.10;;;;;;;15.93;50.12;91689.13;5054130;28;20085;-84
2022/11/18 00:52:41;;;;;;;5.47;4.70;;;;;;;15.96;50.28;91686.06;5037178;28;20048;-84
2022/11/18 00:55:06;;;;;;;6.55;4.75;;;;;;;15.95;50.10;91675.69;5034336;28;20067;-84
2022/11/18 00:57:32;;;;;;;5.60;4.30;;;;;;;15.96;50.48;91677.88;5018442;28;20111;-84
2022/11/18 00:59:58;;;;;;;5.90;4.35;;;;;;;15.95;50.24;91681.16;5034977;28;20032;-84
2022/11/18 01:02:24;;;;;;;5.22;3.95;;;;;;;15.94;50.45;91672.25;5031718;28;20066;-85
2022/11/18 01:04:49;;;;;;;5.47;4.43;;;;;;;15.92;50.50;91672.03;5055072;28;20048;-85
2022/11/18 01:07:14;;;;;;;5.93;4.43;;;;;;;15.91;50.36;91661.69;5057010;28;20090;-84
2022/11/18 01:09:43;;;;;;;5.80;4.40;;;;;;;15.94;50.09;91657.88;5039422;28;20036;-85
2022/11/18 01:14:54;;;;;;;6.15;4.70;;;;;;;15.94;50.41;91638.81;5053205;28;20078;-85
2022/11/18 01:17:19;;;;;;;5.20;4.03;;;;;;;15.93;50.12;91642.81;5047460;28;20048;-84
2022/11/18 01:19:45;;;;;;;6.18;4.53;;;;;;;15.89;50.34;91636.97;5020335;28;20085;-85
2022/11/18 01:22:10;;;;;;;6.45;4.38;;;;;;;15.91;50.32;91645.34;5044674;28;20036;-84
2022/11/18 01:24:35;;;;;;;4.88;3.95;;;;;;;15.89;50.28;91640.41;5068044;28;20045;-84
2022/11/18 01:27:01;;;;;;;5.93;4.20;;;;;;;15.94;49.84;91638.81;5030337;28;20043;-84
2022/11/18 01:29:26;;;;;;;5.93;4.07;;;;;;;15.90;50.01;91649.31;5034130;28;20380;-84
2022/11/18 01:31:52;;;;;;;6.30;4.40;;;;;;;15.88;50.21;91641.69;5043655;28;20040;-84
2022/11/18 01:34:17;;;;;;;5.10;3.65;;;;;;;15.88;50.32;91638.22;5066932;28;20403;-84
2022/11/18 01:36:43;;;;;;;5.45;3.88;;;;;;;15.92;50.75;91638.63;5063665;28;20597;-84
2022/11/18 01:39:08;;;;;;;5.28;3.78;;;;;;;15.93;50.11;91635.34;5033684;28;20115;-84
2022/11/18 01:41:33;;;;;;;5.07;3.53;;;;;;;15.93;50.26;91637.34;5033823;28;20499;-85
2022/11/18 01:44:04;;;;;;;4.07;3.25;;;;;;;15.92;50.17;91635.91;5061308;28;20032;-85
2022/11/18 01:46:31;;;;;;;3.67;3.03;;;;;;;15.90;50.14;91630.97;5023068;28;20051;-84
2022/11/18 01:49:08;;;;;;;5.13;3.50;;;;;;;15.90;50.09;91636.44;5037578;28;20047;-84
2022/11/18 01:51:36;;;;;;;4.75;3.38;;;;;;;15.89;50.27;91629.53;5027471;28;20048;-84
2022/11/18 01:54:08;;;;;;;4.63;3.50;;;;;;;15.90;50.19;91635.69;5043855;28;20028;-84
2022/11/18 01:56:39;;;;;;;4.10;3.13;;;;;;;15.89;50.24;91642.41;5022320;28;20035;-85
2022/11/18 01:59:10;;;;;;;4.90;3.33;;;;;;;15.88;50.41;91649.84;5036889;28;20221;-84
2022/11/18 02:01:35;;;;;;;4.60;3.15;;;;;;;15.90;50.41;91668.41;5034918;28;20503;-86
2022/11/18 02:04:01;;;;;;;4.85;3.05;;;;;;;15.88;50.26;91670.94;5062993;28;20032;-84
2022/11/18 02:06:26;;;;;;;4.70;3.20;;;;;;;15.91;50.50;91667.13;5066138;28;20041;-84
2022/11/18 02:08:52;;;;;;;4.40;3.45;;;;;;;15.95;50.42;91679.16;5050265;28;20040;-85
2022/11/18 02:14:03;;;;;;;3.42;2.67;;;;;;;15.88;50.47;91681.81;5077536;28;20051;-85
2022/11/18 02:16:37;;;;;;;4.65;2.85;;;;;;;15.88;50.49;91676.38;5035145;28;20512;-84
2022/11/18 02:19:07;;;;;;;4.18;3.13;;;;;;;15.91;50.54;91680.75;5041445;28;20414;-85
2022/11/18 02:21:38;;;;;;;4.60;2.97;;;;;;;15.90;50.47;91677.31;5020927;28;20050;-84
2022/11/18 02:24:25;;;;;;;3.92;3.08;;;;;;;15.92;50.20;91679.50;5066040;28;20058;-84
2022/11/18 02:27:14;;;;;;;4.43;2.90;;;;;;;15.89;50.15;91677.84;5067970;28;20411;-85
2022/11/18 02:30:04;;;;;;;4.18;2.95;;;;;;;15.88;50.24;91665.47;5050349;28;20658;-84
2022/11/18 02:32:32;;;;;;;3.55;2.80;;;;;;;15.89;50.36;91669.66;5060681;28;20495;-84
2022/11/18 02:35:05;;;;;;;4.15;2.88;;;;;;;15.88;50.43;91658.03;5036048;28;20036;-84
2022/11/18 02:37:38;;;;;;;3.75;2.80;;;;;;;15.89;50.28;91656.75;5058783;28;20036;-85
2022/11/18 02:40:08;;;;;;;3.85;2.50;;;;;;;15.88;50.40;91651.84;5016265;28;20059;-84
2022/11/18 02:42:34;;;;;;;3.60;2.53;;;;;;;15.90;50.47;91654.78;5027723;28;20086;-84
2022/11/18 02:45:02;;;;;;;3.47;2.55;;;;;;;15.86;50.47;91638.75;5036192;28;20036;-84
2022/11/18 02:47:28;;;;;;;4.25;2.78;;;;;;;15.86;50.19;91632.59;5052743;28;20040;-85
2022/11/18 02:49:56;;;;;;;4.00;2.72;;;;;;;15.88;50.19;91636.22;5036596;28;20054;-84
2022/11/18 02:52:21;;;;;;;3.30;2.70;;;;;;;15.85;50.11;91629.13;5026901;28;20445;-84
2022/11/18 02:54:47;;;;;;;3.53;2.40;;;;;;;15.86;50.28;91630.59;5038057;28;20107;-84
2022/11/18 02:57:12;;;;;;;3.92;2.35;;;;;;;15.84;50.23;91624.94;5065637;28;20693;-84
2022/11/18 02:59:38;;;;;;;3.47;2.35;;;;;;;15.85;50.41;91620.97;5065691;28;20040;-84
2022/11/18 03:02:03;;;;;;;3.70;2.58;;;;;;;15.84;50.34;91614.03;5040216;28;20470;-84
2022/11/18 03:04:29;;;;;;;4.15;2.72;;;;;;;15.84;50.24;91614.03;5053884;28;20047;-84
2022/11/18 03:07:10;;;;;;;3.97;2.75;;;;;;;15.84;50.27;91602.41;5040618;28;20526;-84
2022/11/18 03:09:37;;;;;;;2.75;2.30;;;;;;;15.83;50.10;91598.97;5038338;28;20026;-84
2022/11/18 03:12:42;;;;;;;2.83;2.10;;;;;;;15.84;49.95;91596.97;4993070;28;20042;-85
2022/11/18 03:15:11;;;;;;;2.45;2.00;;;;;;;15.84;50.40;91597.69;4993991;28;20420;-84
2022/11/18 03:18:06;;;;;;;3.03;2.28;;;;;;;15.82;50.30;91605.69;5012497;28;20415;-84
2022/11/18 03:20:37;;;;;;;3.40;2.25;;;;;;;15.84;50.18;91619.50;4992785;28;20111;-84
2022/11/18 03:23:18;;;;;;;3.22;2.67;;;;;;;15.86;50.42;91624.41;5005282;28;20133;-84
2022/11/18 03:25:54;;;;;;;3.40;2.45;;;;;;;15.84;50.30;91616.03;5029401;28;20094;-84
2022/11/18 03:28:29;;;;;;;3.55;2.50;;;;;;;15.84;50.38;91633.13;5005399;28;20049;-85
2022/11/18 03:31:02;;;;;;;2.53;2.10;;;;;;;15.85;50.54;91629.13;5009699;28;20029;-84
2022/11/18 03:33:31;;;;;;;2.45;2.10;;;;;;;15.84;50.37;91635.84;4997249;28;20044;-84
2022/11/18 03:35:56;;;;;;;3.47;2.30;;;;;;;15.82;49.99;91638.38;4989370;28;20037;-85
2022/11/18 03:38:28;;;;;;;2.80;2.10;;;;;;;15.83;50.42;91644.56;5011848;28;20068;-84
2022/11/18 03:40:56;;;;;;;2.58;1.92;;;;;;;15.84;50.44;91654.19;5011742;28;20119;-85
2022/11/18 03:43:23;;;;;;;4.35;2.30;;;;;;;15.83;50.32;91647.28;5011849;28;20544;-84
2022/11/18 03:45:51;;;;;;;2.60;2.10;;;;;;;15.87;50.47;91661.28;5012906;28;20049;-84
2022/11/18 03:48:19;;;;;;;2.97;2.00;;;;;;;15.83;49.96;91656.19;5018193;28;20057;-86
2022/11/18 03:50:46;;;;;;;2.85;2.22;;;;;;;15.85;50.25;91647.47;5009313;28;20575;-84
2022/11/18 03:53:12;;;;;;;3.53;2.35;;;;;;;15.83;50.08;91652.72;5008324;28;20038;-84
2022/11/18 03:55:39;;;;;;;2.63;1.83;;;;;;;15.82;50.04;91652.00;5012824;28;20048;-86
2022/11/18 03:58:10;;;;;;;2.85;1.95;;;;;;;15.86;50.29;91651.66;5012466;28;20045;-84
2022/11/18 04:00:38;;;;;;;2.78;2.08;;;;;;;15.84;50.15;91654.19;5046573;28;20048;-84
2022/11/18 04:03:03;;;;;;;2.85;2.00;;;;;;;15.87;50.46;91647.66;4998903;28;20041;-84
2022/11/18 04:05:32;;;;;;;2.95;2.00;;;;;;;15.89;50.31;91650.59;4991177;28;20038;-84
2022/11/18 04:08:01;;;;;;;3.15;1.90;;;;;;;15.88;50.11;91630.78;5026358;28;20032;-84
2022/11/18 04:10:36;;;;;;;2.85;2.08;;;;;;;15.83;50.08;91645.28;5015332;28;20444;-84
2022/11/18 04:13:19;;;;;;;2.42;1.92;;;;;;;15.82;50.26;91632.91;5015821;28;20682;-84
2022/11/18 04:15:44;;;;;;;2.83;1.88;;;;;;;15.85;50.44;91636.56;5050720;28;20043;-85
2022/11/18 04:18:10;;;;;;;2.72;2.03;;;;;;;15.85;50.27;91620.97;5067998;28;20036;-84
2022/11/18 04:20:36;;;;;;;2.90;1.92;;;;;;;15.84;50.37;91622.22;5051973;28;20510;-84
2022/11/18 04:23:02;;;;;;;1.73;1.60;;;;;;;15.83;50.38;91609.13;5052404;28;20129;-84
2022/11/18 04:25:27;;;;;;;1.98;1.70;;;;;;;15.84;50.17;91607.88;5051335;28;20537;-84
2022/11/18 04:27:52;;;;;;;2.72;1.85;;;;;;;15.81;50.25;91604.22;5039491;28;20032;-84
2022/11/18 04:30:18;;;;;;;3.22;1.80;;;;;;;15.83;50.29;91598.22;5035007;28;20044;-85
2022/11/18 04:32:44;;;;;;;2.38;1.65;;;;;;;15.83;50.23;91598.22;5064062;28;20045;-84
2022/11/18 04:35:10;;;;;;;2.28;1.60;;;;;;;15.85;50.04;91599.16;5015195;28;20391;-84
2022/11/18 04:37:35;;;;;;;2.25;1.65;;;;;;;15.85;50.48;91601.88;5059398;28;20106;-84
2022/11/18 04:40:00;;;;;;;2.55;1.80;;;;;;;15.82;50.10;91594.78;5050798;28;20048;-84
2022/11/18 04:42:26;;;;;;;2.88;1.73;;;;;;;15.82;50.24;91597.50;5031299;28;20434;-84
2022/11/18 04:44:51;;;;;;;2.17;1.70;;;;;;;15.82;50.19;91596.78;5048750;28;20044;-84
2022/11/18 04:47:16;;;;;;;2.63;1.60;;;;;;;15.82;50.36;91592.06;5058337;28;20443;-84
2022/11/18 04:49:43;;;;;;;2.47;1.92;;;;;;;15.84;50.35;91589.53;5069947;28;20043;-84
2022/11/18 04:52:08;;;;;;;2.30;1.75;;;;;;;15.81;50.31;91593.31;5046212;28;20029;-84
2022/11/18 04:54:34;;;;;;;2.55;1.60;;;;;;;15.83;50.16;91598.97;5035417;28;20525;-84
2022/11/18 04:56:59;;;;;;;3.72;2.10;;;;;;;15.82;50.11;91596.78;5051545;28;20032;-85
2022/11/18 04:59:26;;;;;;;1.83;1.60;;;;;;;15.81;50.04;91590.59;5051170;28;20040;-84
2022/11/18 05:01:51;;;;;;;2.75;1.90;;;;;;;15.80;50.20;91597.34;5018577;28;20535;-84
2022/11/18 05:04:19;;;;;;;1.80;1.52;;;;;;;15.84;50.61;91599.69;5067374;28;20094;-84
2022/11/18 05:06:44;;;;;;;1.90;1.58;;;;;;;15.80;50.43;91605.50;5051089;28;20033;-84
2022/11/18 05:09:09;;;;;;;3.17;1.92;;;;;;;15.85;50.03;91601.16;5043864;28;20104;-84
2022/11/18 05:14:19;;;;;;;2.97;1.65;;;;;;;15.85;50.10;91606.59;5050723;28;20039;-84
2022/11/18 05:16:44;;;;;;;4.10;1.98;;;;;;;15.84;50.24;91605.16;5036798;28;20028;-84
2022/11/18 05:19:10;;;;;;;2.22;1.63;;;;;;;15.81;50.36;91598.03;5038318;28;20079;-85
2022/11/18 05:21:35;;;;;;;1.65;1.40;;;;;;;15.81;49.97;91595.31;5030827;28;20063;-84
2022/11/18 05:24:01;;;;;;;2.10;1.45;;;;;;;15.81;49.99;91600.75;5031550;28;20036;-84
2022/11/18 05:26:26;;;;;;;2.22;1.52;;;;;;;15.81;50.54;91596.03;5011668;28;20457;-84
2022/11/18 05:28:52;;;;;;;1.92;1.42;;;;;;;15.84;49.94;91589.53;5033984;28;20033;-84
2022/11/18 05:31:17;;;;;;;1.92;1.50;;;;;;;15.81;50.26;91590.59;5064133;28;20389;-84
2022/11/18 05:33:43;;;;;;;2.10;1.40;;;;;;;15.82;50.18;91600.22;5032686;28;20148;-84
2022/11/18 05:36:10;;;;;;;7.47;1.88;;;;;;;15.81;50.13;91593.31;5030575;28;20044;-85
2022/11/18 05:38:36;;;;;;;2.83;1.90;;;;;;;15.83;50.43;91592.78;5010182;28;20029;-84
2022/11/18 05:41:01;;;;;;;8.27;6.32;;;;;;;15.87;50.21;91595.91;5043597;28;20095;-84
2022/11/18 05:43:27;;;;;;;3.13;2.38;;;;;;;15.82;50.32;91605.69;5046861;28;20037;-83
2022/11/18 05:45:53;;;;;;;5.13;3.30;;;;;;;15.82;50.11;91600.22;5027940;28;20040;-84
2022/11/18 05:48:18;;;;;;;5.43;4.55;;;;;;;15.84;50.72;91603.16;5046851;28;20055;-84
2022/11/18 05:50:47;;;;;;;5.18;4.43;;;;;;;15.83;49.96;91603.69;5007770;28;20025;-84
2022/11/18 05:53:13;;;;;;;3.85;3.42;;;;;;;15.84;50.18;91607.88;5018316;28;20036;-83
2022/11/18 05:55:43;;;;;;;4.97;4.22;;;;;;;15.87;50.22;91612.97;5013824;28;20037;-84
2022/11/18 05:58:08;;;;;;;4.25;3.08;;;;;;;15.83;49.92;91612.59;5002305;28;20028;-84
2022/11/18 06:00:34;;;;;;;5.85;3.50;;;;;;;15.86;50.28;91619.69;5050043;28;20448;-84
2022/11/18 06:02:59;;;;;;;4.50;3.50;;;;;;;15.85;50.54;91620.22;5029962;28;20094;-84
2022/11/18 06:05:24;;;;;;;3.30;2.92;;;;;;;15.85;50.37;91620.97;5040458;28;20560;-84
2022/11/18 06:07:50;;;;;;;2.80;2.50;;;;;;;15.85;50.35;91629.13;5033417;28;20029;-84
2022/11/18 06:10:20;;;;;;;4.28;3.10;;;;;;;15.85;50.25;91631.13;5017124;28;20035;-84
2022/11/18 06:12:47;;;;;;;3.60;3.00;;;;;;;15.85;50.35;91623.69;5015809;28;20039;-85
2022/11/18 06:15:14;;;;;;;4.72;3.05;;;;;;;15.86;50.40;91638.03;5013479;28;20036;-85
2022/11/18 06:17:47;;;;;;;7.95;3.05;;;;;;;15.86;49.93;91641.50;5024216;28;20049;-85
2022/11/18 06:20:15;;;;;;;4.20;2.95;;;;;;;15.88;49.85;91647.13;5035273;28;20040;-86
2022/11/18 06:22:40;;;;;;;4.57;2.88;;;;;;;15.87;49.81;91650.41;5017333;28;20040;-85
2022/11/18 06:25:06;;;;;;;8.43;3.08;;;;;;;15.86;49.88;91643.47;5023562;28;20044;-85
2022/11/18 06:27:31;;;;;;;9.55;3.15;;;;;;;15.89;49.99;91645.88;5033859;28;20040;-85
2022/11/18 06:29:58;;;;;;;5.35;2.78;;;;;;;15.92;50.10;91655.69;5031899;28;20040;-85
2022/11/18 06:32:24;;;;;;;11.05;3.30;;;;;;;15.89;49.85;91656.03;5021252;28;20051;-85
2022/11/18 06:34:50;;;;;;;7.63;2.38;;;;;;;15.86;50.08;91657.84;5023471;28;20036;-85
2022/11/18 06:37:17;;;;;;;11.95;2.85;;;;;;;15.88;49.88;91654.56;5045218;28;20036;-85
2022/11/18 06:39:42;;;;;;;4.88;3.05;;;;;;;15.86;49.93;91668.00;5044865;28;20049;-85
2022/11/18 06:42:08;;;;;;;10.50;5.65;;;;;;;15.84;49.40;91656.91;5022356;28;20079;-84
2022/11/18 06:44:33;;;;;;;11.48;6.78;;;;;;;15.74;48.95;91670.31;5057735;28;20048;-83
2022/11/18 06:47:00;;;;;;;13.80;6.40;;;;;;;15.76;48.90;91670.50;5060809;28;20032;-85
2022/11/18 06:49:26;;;;;;;20.15;9.15;;;;;;;15.76;48.78;91673.97;5040748;28;20688;-86
2022/11/18 06:51:51;;;;;;;26.48;10.27;;;;;;;15.77;49.17;91674.69;5031335;28;20040;-85
2022/11/18 06:54:17;;;;;;;17.27;10.50;;;;;;;15.78;49.46;91678.88;5046039;28;20041;-86
2022/11/18 06:56:42;;;;;;;23.13;11.40;;;;;;;15.76;49.10;91686.84;5057348;28;20068;-86
2022/11/18 06:59:07;;;;;;;24.20;12.32;;;;;;;15.79;49.45;91687.78;5020744;28;20041;-85
2022/11/18 07:01:34;;;;;;;32.40;13.35;;;;;;;15.80;49.58;91694.69;5039133;28;20471;-85
2022/11/18 07:04:00;;;;;;;347.27;264.05;;;;;;;15.82;49.78;91695.59;5037577;28;20067;-85
2022/11/18 07:06:27;;;;;;;76.97;54.05;;;;;;;15.84;49.62;91697.78;5014588;28;20048;-86
2022/11/18 07:08:52;;;;;;;19.85;12.05;;;;;;;15.82;49.99;91698.31;5047648;28;20033;-86
2022/11/18 07:11:20;;;;;;;24.10;12.20;;;;;;;15.83;49.64;91712.66;5041134;28;20514;-85
2022/11/18 07:13:46;;;;;;;25.50;10.73;;;;;;;15.83;49.64;91718.13;5031322;28;20459;-85
2022/11/18 07:16:16;;;;;;;24.48;12.07;;;;;;;15.80;49.55;91711.03;5013468;28;20087;-85
2022/11/18 07:18:42;;;;;;;43.83;13.57;;;;;;;15.80;49.44;91716.47;5039428;28;20040;-85
2022/11/18 07:21:10;;;;;;;23.40;13.02;;;;;;;15.80;49.39;91721.94;5030005;28;20593;-85
2022/11/18 07:23:35;;;;;;;19.65;13.63;;;;;;;15.80;49.45;91711.03;5051107;28;20092;-85
2022/11/18 07:26:01;;;;;;;23.45;13.38;;;;;;;15.79;49.38;91713.03;5030639;28;20041;-85
2022/11/18 07:28:26;;;;;;;23.55;13.73;;;;;;;15.80;49.54;91717.22;5012462;28;20044;-85
2022/11/18 07:30:52;;;;;;;19.75;12.13;;;;;;;15.80;49.79;91716.47;5013004;28;20037;-84
2022/11/18 07:33:17;;;;;;;27.27;13.65;;;;;;;15.84;49.55;91719.56;5028669;28;20041;-84
2022/11/18 07:35:43;;;;;;;31.67;13.05;;;;;;;15.86;49.45;91717.78;5013160;28;20044;-85
2022/11/18 07:38:08;;;;;;;28.50;15.95;;;;;;;15.83;49.75;91718.13;5026776;28;20033;-84
2022/11/18 07:40:33;;;;;;;16.90;11.82;;;;;;;15.75;48.85;91718.06;5041822;28;20676;-84
2022/11/18 07:42:59;;;;;;;12.55;9.80;;;;;;;15.63;48.61;91720.34;5064447;28;20055;-83
2022/11/18 07:45:24;;;;;;;14.48;9.38;;;;;;;15.60;48.36;91723.41;5032595;28;20045;-83
2022/11/18 07:47:50;;;;;;;19.30;10.05;;;;;;;15.53;48.55;91715.88;5032641;28;20028;-84
2022/11/18 07:50:16;;;;;;;30.65;13.88;;;;;;;15.53;48.74;91718.59;5046753;28;20078;-85
2022/11/18 07:52:41;;;;;;;30.75;11.55;;;;;;;15.53;48.59;91719.34;5017422;28;20029;-85
2022/11/18 07:55:07;;;;;;;16.80;11.10;;;;;;;15.57;49.08;91711.59;5033627;28;20565;-84
2022/11/18 07:57:32;;;;;;;17.77;9.43;;;;;;;15.60;49.20;91723.41;5049971;28;20045;-83
2022/11/18 07:59:58;;;;;;;18.90;11.57;;;;;;;15.61;49.37;91720.13;5059819;28;20040;-81
2022/11/18 08:02:23;;;;;;;21.63;11.55;;;;;;;15.63;49.43;91720.34;5030851;28;20037;-82
2022/11/18 08:04:49;;;;;;;22.23;11.90;;;;;;;15.64;49.69;91710.19;5016993;28;20087;-83
2022/11/18 08:07:14;;;;;;;24.20;12.40;;;;;;;15.63;49.96;91714.91;5032880;28;20522;-83
2022/11/18 08:09:39;;;;;;;22.17;12.77;;;;;;;15.63;50.28;91720.34;5033399;28;20087;-81
2022/11/18 08:12:05;;;;;;;32.40;14.40;;;;;;;15.63;50.11;91714.91;5032433;28;20033;-83
2022/11/18 08:14:31;;;;;;;45.97;15.55;;;;;;;15.66;50.12;91726.72;5040069;28;20147;-82
2022/11/18 08:16:57;;;;;;;28.52;15.20;;;;;;;15.68;49.94;91721.47;5009303;28;20041;-84
2022/11/18 08:19:24;;;;;;;33.25;16.08;;;;;;;15.74;51.68;91722.78;5047386;28;20049;-83
2022/11/18 08:21:52;;;;;;;26.05;13.77;;;;;;;15.70;50.47;91722.41;5023031;28;20556;-81
2022/11/18 08:24:18;;;;;;;26.02;13.40;;;;;;;15.70;49.90;91725.13;5023630;28;20045;-82
2022/11/18 08:26:45;;;;;;;21.98;14.10;;;;;;;15.69;50.28;91714.75;5049847;28;20045;-82
2022/11/18 08:29:11;;;;;;;27.02;14.32;;;;;;;15.69;49.97;91714.75;5061350;28;20052;-82
2022/11/18 08:31:41;;;;;;;25.35;14.13;;;;;;;15.71;50.26;91704.78;5045134;28;20041;-82
2022/11/18 08:34:07;;;;;;;24.75;14.27;;;;;;;15.71;50.24;91706.78;5042974;28;20036;-83
2022/11/18 08:36:38;;;;;;;25.95;13.02;;;;;;;15.69;50.75;91710.03;5023849;28;20033;-83
2022/11/18 08:39:06;;;;;;;24.92;12.80;;;;;;;15.69;50.11;91709.31;5056423;28;20489;-82
2022/11/18 08:41:36;;;;;;;24.23;13.18;;;;;;;15.74;50.40;91703.72;5019513;28;20047;-82
2022/11/18 08:44:03;;;;;;;21.83;13.15;;;;;;;15.70;50.26;91710.78;5033729;28;20036;-82
2022/11/18 08:46:29;;;;;;;18.90;11.93;;;;;;;15.71;50.23;91706.78;5050525;28;20041;-82
2022/11/18 08:48:55;;;;;;;22.08;11.95;;;;;;;15.72;50.25;91702.78;5042385;28;20033;-82
2022/11/18 08:51:21;;;;;;;23.77;14.55;;;;;;;15.72;50.52;91708.25;5024063;28;20051;-82
2022/11/18 08:53:47;;;;;;;20.55;12.50;;;;;;;15.70;50.53;91697.16;5060471;28;20039;-82
2022/11/18 08:56:19;;;;;;;23.30;12.88;;;;;;;15.74;50.68;91701.00;5049705;28;20028;-82
2022/11/18 08:58:45;;;;;;;17.40;10.27;;;;;;;15.72;50.79;91692.63;5031829;28;20036;-83
2022/11/18 09:01:11;;;;;;;22.48;12.52;;;;;;;15.72;50.17;91702.78;5046491;28;20048;-83
2022/11/18 09:03:38;;;;;;;20.67;11.52;;;;;;;15.71;50.40;91699.34;5028236;28;20107;-83
2022/11/18 09:06:05;;;;;;;25.15;11.73;;;;;;;15.74;50.79;91703.00;5032046;28;20051;-84
2022/11/18 09:08:31;;;;;;;23.23;13.52;;;;;;;15.74;50.55;91700.28;5070242;28;20031;-84
2022/11/18 09:11:06;;;;;;;18.08;10.73;;;;;;;15.75;50.49;91704.47;5052208;28;20044;-84
2022/11/18 09:13:32;;;;;;;25.80;11.32;;;;;;;15.74;50.45;91703.00;5042003;28;20096;-83
2022/11/18 09:15:58;;;;;;;26.45;11.00;;;;;;;15.75;50.69;91702.47;5031438;28;20126;-83
2022/11/18 09:18:24;;;;;;;19.85;11.02;;;;;;;15.76;50.55;91700.47;5059156;28;20122;-83
2022/11/18 09:20:59;;;;;;;17.92;10.82;;;;;;;15.73;50.58;91710.44;5051342;28;20448;-84
2022/11/18 09:23:25;;;;;;;17.08;9.90;;;;;;;15.73;50.55;91713.16;5046426;28;20036;-84
2022/11/18 09:26:08;;;;;;;16.73;8.82;;;;;;;15.75;51.22;91707.19;5051912;28;20045;-85
2022/11/18 09:28:34;;;;;;;12.20;9.13;;;;;;;15.76;51.27;91703.94;5032488;28;20522;-84
2022/11/18 09:31:05;;;;;;;15.45;9.15;;;;;;;15.76;50.29;91709.38;5047087;28;20040;-83
2022/11/18 09:33:31;;;;;;;13.25;10.25;;;;;;;15.79;50.68;91701.41;5049151;28;20043;-82
2022/11/18 09:35:57;;;;;;;23.52;14.55;;;;;;;15.76;51.04;91708.66;5053552;28;20067;-84
2022/11/18 09:38:23;;;;;;;17.25;10.60;;;;;;;15.75;50.88;91705.19;5040381;28;20060;-83
2022/11/18 09:41:00;;;;;;;21.58;16.05;;;;;;;15.76;51.16;91697.75;5060580;28;20097;-84
2022/11/18 09:43:34;;;;;;;26.75;19.75;;;;;;;15.76;50.70;91706.66;5051571;28;20783;-85
2022/11/18 09:46:03;;;;;;;26.92;12.57;;;;;;;15.77;50.83;91702.66;5037328;28;20040;-83
2022/11/18 09:51:14;;;;;;;14.20;9.05;;;;;;;15.79;50.95;91706.84;5053222;28;20106;-83
2022/11/18 09:53:41;;;;;;;23.55;12.40;;;;;;;15.76;50.71;91701.19;5041228;28;20494;-84
2022/11/18 09:56:14;;;;;;;18.27;11.77;;;;;;;15.76;50.55;91709.38;5051090;28;20093;-83
2022/11/18 09:58:41;;;;;;;29.23;22.40;;;;;;;15.76;50.59;91712.09;5054058;28;20070;-84
2022/11/18 10:01:18;;;;;;;19.70;12.85;;;;;;;15.76;50.48;91703.94;5035700;28;20051;-84
2022/11/18 10:03:44;;;;;;;20.98;11.63;;;;;;;15.79;50.60;91704.84;5031318;28;20090;-84
2022/11/18 10:06:32;;;;;;;20.05;11.27;;;;;;;15.77;50.81;91704.66;5036790;28;20040;-84
2022/11/18 10:09:17;;;;;;;16.88;11.68;;;;;;;15.81;50.71;91698.84;5051537;28;20044;-84
2022/11/18 10:12:02;;;;;;;24.10;12.55;;;;;;;15.80;50.62;91702.84;5074528;28;20036;-85
2022/11/18 10:14:39;;;;;;;22.10;12.10;;;;;;;15.80;50.58;91697.41;5086362;28;20062;-84
2022/11/18 10:17:28;;;;;;;20.13;12.27;;;;;;;15.79;50.53;91702.13;5053718;28;20082;-84
2022/11/18 10:20:07;;;;;;;17.67;11.88;;;;;;;15.79;50.53;91693.22;5067930;28;20093;-84
2022/11/18 10:23:09;;;;;;;16.55;11.52;;;;;;;15.79;50.23;91699.41;5104348;27;20769;-83
2022/11/18 10:25:35;;;;;;;18.58;12.15;;;;;;;15.78;50.90;91703.41;5087738;28;20040;-83
2022/11/18 10:28:15;;;;;;;16.52;12.32;;;;;;;15.80;50.48;91709.03;5101860;28;20529;-85
2022/11/18 10:30:44;;;;;;;17.75;11.38;;;;;;;15.79;51.29;91699.41;5080825;28;20760;-83
2022/11/18 10:33:25;;;;;;;18.77;12.40;;;;;;;15.81;50.81;91705.03;5068004;28;20453;-83
2022/11/18 10:36:07;;;;;;;18.98;12.93;;;;;;;15.80;50.88;91702.84;5096055;28;20055;-83
2022/11/18 10:38:34;;;;;;;23.42;10.88;;;;;;;15.80;50.64;91694.69;5079650;28;20040;-82
2022/11/18 10:41:02;;;;;;;18.75;12.73;;;;;;;15.79;50.53;91695.94;5085949;28;20053;-85
2022/11/18 10:43:50;;;;;;;19.85;11.52;;;;;;;15.77;51.06;91691.75;5093637;28;20044;-84
2022/11/18 10:46:26;;;;;;;18.63;12.27;;;;;;;15.79;50.57;91696.69;5097013;28;20917;-84
2022/11/18 10:49:07;;;;;;;22.58;11.05;;;;;;;15.79;50.78;91695.94;5087273;28;20582;-83
2022/11/18 10:51:33;;;;;;;10.50;7.22;;;;;;;15.74;50.21;91681.19;5089890;28;20043;-82
2022/11/18 10:54:15;;;;;;;13.77;6.65;;;;;;;15.72;50.49;91689.19;5101383;28;20096;-84
2022/11/18 10:56:50;;;;;;;11.20;6.72;;;;;;;15.71;50.13;91687.72;5084068;28;20151;-84
2022/11/18 10:59:30;;;;;;;8.43;5.72;;;;;;;15.67;50.52;91684.59;5080559;28;20119;-85
2022/11/18 11:01:59;;;;;;;13.48;6.63;;;;;;;15.69;50.50;91677.34;5097400;28;20031;-85
2022/11/18 11:04:29;;;;;;;16.90;7.60;;;;;;;15.68;50.38;91681.34;5095542;28;20082;-83
2022/11/18 11:06:58;;;;;;;17.98;8.40;;;;;;;15.76;50.67;91678.69;5089693;28;20071;-84
2022/11/18 11:09:30;;;;;;;16.73;8.07;;;;;;;15.79;50.86;91676.88;5062808;28;20056;-84
2022/11/18 11:11:59;;;;;;;13.75;8.88;;;;;;;15.75;50.69;91671.78;5084560;28;20514;-85
2022/11/18 11:14:41;;;;;;;11.93;8.23;;;;;;;15.75;50.82;91677.94;5066562;28;20052;-85
2022/11/18 11:17:16;;;;;;;87.63;73.93;;;;;;;15.81;51.07;91682.50;5089517;28;20044;-85
2022/11/18 11:20:13;;;;;;;257.25;192.57;;;;;;;15.82;50.77;91668.34;5093300;28;20039;-84
2022/11/18 11:22:38;;;;;;;15.30;10.00;;;;;;;15.86;50.76;91682.34;5083781;28;20043;-84
2022/11/18 11:25:14;;;;;;;14.43;9.93;;;;;;;15.79;50.74;91674.88;5081457;28;20050;-84
2022/11/18 11:27:50;;;;;;;12.80;8.77;;;;;;;15.81;50.92;91679.78;5100234;28;20039;-85
2022/11/18 11:30:18;;;;;;;11.93;8.65;;;;;;;15.80;50.69;91686.50;5080378;28;20457;-84
2022/11/18 11:33:06;;;;;;;12.07;8.85;;;;;;;15.79;50.61;91676.88;5075734;28;20041;-84
2022/11/18 11:35:40;;;;;;;13.90;8.25;;;;;;;15.79;50.62;91676.88;5071875;28;20059;-83
2022/11/18 11:38:12;;;;;;;15.38;8.85;;;;;;;15.80;50.78;91687.25;5088720;28;20355;-85
2022/11/18 11:40:39;;;;;;;12.20;7.72;;;;;;;15.80;51.39;91676.34;5059319;28;20142;-83
2022/11/18 11:43:23;;;;;;;12.73;8.50;;;;;;;15.81;50.74;91682.50;5034180;28;20041;-85
2022/11/18 11:46:07;;;;;;;11.45;8.48;;;;;;;15.82;50.70;91679.25;5046958;28;20057;-84
2022/11/18 11:48:51;;;;;;;11.63;7.95;;;;;;;15.80;50.51;91675.63;5047124;28;20469;-84